Time;durP1;ratioP1;P1;durP2;ratioP2;P2;SDS_P1;SDS_P2;PMS_P1;PMS_P2;Temp;Humidity;BMP_temperature;BMP_pressure;BME280_temperature;BME280_humidity;BME280_pressure;Samples;Min_cycle;Max_cycle;Signal;HPM_P1;HPM_P2
2021/06/11 00:02:21;;;;;;;;;;;27.20;36.80;;;;;;4991659;28;74559;-66
2021/06/11 00:04:46;;;;;;;;;;;27.20;37.30;;;;;;4993317;28;75164;-66
2021/06/11 00:07:12;;;;;;;;;;;27.10;37.10;;;;;;4993138;28;75080;-66
2021/06/11 00:09:37;;;;;;;;;;;27.10;36.80;;;;;;4991986;28;78162;-67
2021/06/11 00:12:03;;;;;;;;;;;27.10;36.90;;;;;;4993137;28;74971;-69
2021/06/11 00:14:29;;;;;;;;;;;27.00;36.90;;;;;;4993067;28;75640;-69
2021/06/11 00:16:54;;;;;;;;;;;27.00;37.30;;;;;;4993429;28;74551;-67
2021/06/11 00:19:20;;;;;;;;;;;27.00;37.40;;;;;;4991511;28;77957;-67
2021/06/11 00:21:46;;;;;;;;;;;27.00;37.50;;;;;;4991563;28;76220;-71
2021/06/11 00:24:11;;;;;;;;;;;26.90;37.60;;;;;;4992953;28;75237;-70
2021/06/11 00:26:37;;;;;;;;;;;26.90;37.20;;;;;;4993363;28;75238;-68
2021/06/11 00:29:02;;;;;;;;;;;26.90;37.70;;;;;;4991828;28;77177;-70
2021/06/11 00:31:28;;;;;;;;;;;26.80;37.60;;;;;;4992960;28;75071;-67
2021/06/11 00:33:54;;;;;;;;;;;26.80;37.80;;;;;;4993036;28;75625;-69
2021/06/11 00:36:19;;;;;;;;;;;26.80;37.70;;;;;;4992838;28;75231;-66
2021/06/11 00:38:45;;;;;;;;;;;26.70;38.00;;;;;;4993166;28;75192;-67
2021/06/11 00:41:11;;;;;;;;;;;26.70;37.80;;;;;;4992810;28;75501;-70
2021/06/11 00:43:37;;;;;;;;;;;26.60;38.00;;;;;;4992724;28;75221;-70
2021/06/11 00:46:03;;;;;;;;;;;26.60;37.90;;;;;;4992831;28;75047;-68
2021/06/11 00:48:28;;;;;;;;;;;26.60;38.10;;;;;;4992310;28;76066;-65
2021/06/11 00:50:54;;;;;;;;;;;26.50;38.00;;;;;;4992431;28;75300;-65
2021/06/11 00:53:19;;;;;;;;;;;26.50;38.30;;;;;;4991673;28;75999;-67
2021/06/11 00:55:45;;;;;;;;;;;26.40;38.30;;;;;;4993190;28;74438;-66
2021/06/11 00:58:18;;;;;;;;;;;26.40;38.10;;;;;;4992182;28;75670;-66
2021/06/11 01:00:47;;;;;;;;;;;26.40;38.30;;;;;;4974426;28;98275;-65
2021/06/11 01:03:13;;;;;;;;;;;26.40;38.40;;;;;;4991132;28;75452;-64
2021/06/11 01:05:41;;;;;;;;;;;26.40;38.50;;;;;;4990918;28;74678;-65
2021/06/11 01:08:07;;;;;;;;;;;26.30;38.60;;;;;;4990939;28;76362;-65
2021/06/11 01:10:34;;;;;;;;;;;26.30;38.80;;;;;;4992180;28;75200;-64
2021/06/11 01:13:00;;;;;;;;;;;26.20;38.80;;;;;;4991282;28;75768;-66
2021/06/11 01:15:26;;;;;;;;;;;26.20;38.80;;;;;;4992049;28;75894;-64
2021/06/11 01:17:54;;;;;;;;;;;26.20;38.90;;;;;;4990892;28;77879;-66
2021/06/11 01:20:21;;;;;;;;;;;26.10;38.50;;;;;;4992579;28;75101;-68
2021/06/11 01:23:05;;;;;;;;;;;26.00;38.60;;;;;;4990925;28;77624;-65
2021/06/11 01:25:38;;;;;;;;;;;26.00;38.70;;;;;;4990707;28;77872;-65
2021/06/11 01:28:04;;;;;;;;;;;26.00;38.90;;;;;;4992278;28;75085;-66
2021/06/11 01:30:31;;;;;;;;;;;26.00;38.80;;;;;;4990405;28;78231;-66
2021/06/11 01:32:57;;;;;;;;;;;26.00;38.80;;;;;;5007074;28;75993;-65
2021/06/11 01:35:29;;;;;;;;;;;26.00;39.80;;;;;;4992389;28;75041;-66
2021/06/11 01:38:01;;;;;;;;;;;25.90;39.60;;;;;;4990683;28;77324;-66
2021/06/11 01:40:27;;;;;;;;;;;25.90;39.80;;;;;;4992163;28;74399;-67
2021/06/11 01:42:54;;;;;;;;;;;25.90;39.90;;;;;;4990771;28;76439;-68
2021/06/11 01:45:20;;;;;;;;;;;25.90;40.40;;;;;;5007277;28;77773;-66
2021/06/11 01:47:48;;;;;;;;;;;25.90;40.50;;;;;;4992138;28;75446;-67
2021/06/11 01:50:15;;;;;;;;;;;25.90;40.20;;;;;;4990727;28;76987;-67
2021/06/11 01:52:41;;;;;;;;;;;25.80;40.00;;;;;;4990776;28;75994;-67
2021/06/11 01:55:09;;;;;;;;;;;25.80;40.50;;;;;;4990822;28;77231;-68
2021/06/11 01:57:35;;;;;;;;;;;25.70;40.40;;;;;;4991540;28;75023;-67
2021/06/11 02:00:02;;;;;;;;;;;25.70;40.70;;;;;;4992249;28;74727;-68
2021/06/11 02:02:28;;;;;;;;;;;25.70;40.80;;;;;;4991886;28;76490;-67
2021/06/11 02:04:55;;;;;;;;;;;25.70;41.50;;;;;;4995054;28;75153;-67
2021/06/11 02:07:22;;;;;;;;;;;25.70;41.80;;;;;;4995189;28;75231;-68
2021/06/11 02:09:48;;;;;;;;;;;25.70;41.90;;;;;;4993966;28;77226;-68
2021/06/11 02:12:14;;;;;;;;;;;25.60;41.80;;;;;;4995159;28;75144;-66
2021/06/11 02:14:40;;;;;;;;;;;25.60;42.00;;;;;;4994791;28;75142;-65
2021/06/11 02:17:06;;;;;;;;;;;25.60;42.40;;;;;;4995222;28;75111;-66
2021/06/11 02:19:33;;;;;;;;;;;25.60;42.20;;;;;;4994877;28;75190;-66
2021/06/11 02:21:59;;;;;;;;;;;25.60;42.30;;;;;;4993760;28;74594;-66
2021/06/11 02:24:24;;;;;;;;;;;25.60;42.60;;;;;;4994812;28;75408;-64
2021/06/11 02:26:51;;;;;;;;;;;25.60;42.50;;;;;;4993360;28;76524;-68
2021/06/11 02:29:17;;;;;;;;;;;25.50;42.70;;;;;;4993350;28;77274;-66
2021/06/11 02:31:42;;;;;;;;;;;25.50;42.80;;;;;;4993398;28;75389;-66
2021/06/11 02:34:08;;;;;;;;;;;25.40;42.90;;;;;;4995183;28;74438;-66
2021/06/11 02:36:34;;;;;;;;;;;25.40;43.00;;;;;;4994627;28;74466;-66
2021/06/11 02:39:00;;;;;;;;;;;25.40;43.30;;;;;;4993256;28;76843;-66
2021/06/11 02:41:27;;;;;;;;;;;25.40;43.00;;;;;;4995056;28;74693;-66
2021/06/11 02:43:53;;;;;;;;;;;25.40;43.10;;;;;;4994692;28;75715;-67
2021/06/11 02:46:25;;;;;;;;;;;25.40;43.20;;;;;;4994450;28;75377;-70
2021/06/11 02:48:56;;;;;;;;;;;25.30;43.20;;;;;;4992789;28;78139;-69
2021/06/11 02:51:25;;;;;;;;;;;25.40;43.20;;;;;;4994699;28;74661;-70
2021/06/11 02:53:51;;;;;;;;;;;25.40;43.40;;;;;;4992792;28;75467;-70
2021/06/11 02:56:19;;;;;;;;;;;25.30;43.20;;;;;;5009699;28;75487;-65
2021/06/11 02:58:50;;;;;;;;;;;25.30;43.40;;;;;;4994116;28;75228;-70
2021/06/11 03:01:16;;;;;;;;;;;25.30;43.60;;;;;;4992703;28;76508;-68
2021/06/11 03:03:43;;;;;;;;;;;25.30;43.70;;;;;;4992913;28;77360;-69
2021/06/11 03:06:12;;;;;;;;;;;25.30;43.60;;;;;;4992469;28;78004;-68
2021/06/11 03:08:40;;;;;;;;;;;25.30;43.60;;;;;;4992709;28;75666;-67
2021/06/11 03:11:08;;;;;;;;;;;25.30;44.10;;;;;;4994211;28;75415;-67
2021/06/11 03:13:34;;;;;;;;;;;25.30;44.10;;;;;;4992892;28;77466;-68
2021/06/11 03:16:00;;;;;;;;;;;25.30;44.10;;;;;;4992046;28;75742;-66
2021/06/11 03:18:28;;;;;;;;;;;25.20;44.60;;;;;;4994222;28;75136;-67
2021/06/11 03:20:56;;;;;;;;;;;25.20;44.50;;;;;;4994252;28;75308;-66
2021/06/11 03:23:27;;;;;;;;;;;25.20;44.80;;;;;;4993806;28;75377;-66
2021/06/11 03:26:03;;;;;;;;;;;25.20;45.10;;;;;;4993960;28;75120;-66
2021/06/11 03:28:31;;;;;;;;;;;25.10;46.10;;;;;;4992124;28;75476;-67
2021/06/11 03:30:59;;;;;;;;;;;25.10;45.20;;;;;;4992231;28;75512;-68
2021/06/11 03:33:30;;;;;;;;;;;25.00;45.20;;;;;;4992464;28;77397;-69
2021/06/11 03:36:02;;;;;;;;;;;25.00;46.40;;;;;;4992694;28;74575;-67
2021/06/11 03:38:29;;;;;;;;;;;24.90;46.40;;;;;;4994336;28;75990;-67
2021/06/11 03:40:55;;;;;;;;;;;24.90;46.00;;;;;;4993777;28;74467;-68
2021/06/11 03:43:21;;;;;;;;;;;24.90;46.30;;;;;;4993790;28;76451;-69
2021/06/11 03:45:47;;;;;;;;;;;24.90;46.40;;;;;;4992025;28;76969;-68
2021/06/11 03:48:14;;;;;;;;;;;24.90;46.50;;;;;;4992094;28;76041;-67
2021/06/11 03:50:41;;;;;;;;;;;24.80;46.60;;;;;;4993504;28;75225;-67
2021/06/11 03:53:07;;;;;;;;;;;24.80;46.50;;;;;;4993512;28;75210;-67
2021/06/11 03:55:36;;;;;;;;;;;24.80;46.90;;;;;;4993777;28;74543;-67
2021/06/11 03:58:05;;;;;;;;;;;24.70;47.60;;;;;;4991690;28;77590;-67
2021/06/11 04:00:31;;;;;;;;;;;24.60;47.60;;;;;;4993581;28;74527;-67
2021/06/11 04:02:58;;;;;;;;;;;24.60;47.60;;;;;;4993158;28;75271;-67
2021/06/11 04:05:24;;;;;;;;;;;24.50;47.50;;;;;;4991761;28;75744;-66
2021/06/11 04:07:53;;;;;;;;;;;24.50;48.10;;;;;;4993339;28;75112;-65
2021/06/11 04:10:29;;;;;;;;;;;24.50;48.10;;;;;;4993363;28;74862;-66
2021/06/11 04:12:57;;;;;;;;;;;24.50;47.90;;;;;;5008355;28;75925;-65
2021/06/11 04:15:24;;;;;;;;;;;24.50;48.20;;;;;;4991417;28;76411;-67
2021/06/11 04:17:52;;;;;;;;;;;24.40;48.10;;;;;;4993490;28;74526;-65
2021/06/11 04:20:22;;;;;;;;;;;24.40;48.10;;;;;;4992127;28;75389;-65
2021/06/11 04:22:49;;;;;;;;;;;24.40;48.20;;;;;;4993188;28;75215;-64
2021/06/11 04:25:16;;;;;;;;;;;24.40;48.50;;;;;;4992194;28;77278;-63
2021/06/11 04:27:42;;;;;;;;;;;24.30;48.50;;;;;;4991071;28;76495;-66
2021/06/11 04:30:08;;;;;;;;;;;24.30;48.30;;;;;;4991402;28;76982;-67
2021/06/11 04:32:33;;;;;;;;;;;24.30;48.40;;;;;;4992912;28;75480;-71
2021/06/11 04:34:59;;;;;;;;;;;24.30;48.80;;;;;;4993335;28;75164;-63
2021/06/11 04:37:25;;;;;;;;;;;24.30;48.60;;;;;;4992808;28;74584;-69
2021/06/11 04:39:50;;;;;;;;;;;24.20;49.00;;;;;;4991320;28;76215;-63
2021/06/11 04:42:16;;;;;;;;;;;24.20;48.80;;;;;;4993114;28;74585;-71
2021/06/11 04:44:42;;;;;;;;;;;24.20;49.00;;;;;;4991564;28;74712;-64
2021/06/11 04:47:08;;;;;;;;;;;24.10;49.20;;;;;;4993480;28;74433;-66
2021/06/11 04:49:33;;;;;;;;;;;24.10;48.90;;;;;;4992748;28;74481;-65
2021/06/11 04:51:59;;;;;;;;;;;24.10;49.20;;;;;;4993027;28;74548;-66
2021/06/11 04:54:25;;;;;;;;;;;24.10;49.10;;;;;;4992672;28;75148;-68
2021/06/11 04:56:50;;;;;;;;;;;24.10;49.50;;;;;;4992915;28;74606;-65
2021/06/11 04:59:16;;;;;;;;;;;24.10;49.50;;;;;;4992535;28;75618;-66
2021/06/11 05:01:45;;;;;;;;;;;24.10;49.50;;;;;;4992529;28;75085;-67
2021/06/11 05:04:10;;;;;;;;;;;24.20;49.20;;;;;;4993035;28;74519;-69
2021/06/11 05:06:36;;;;;;;;;;;24.20;49.20;;;;;;4992651;28;75185;-66
2021/06/11 05:09:01;;;;;;;;;;;24.10;49.30;;;;;;4991007;28;75701;-69
2021/06/11 05:11:27;;;;;;;;;;;24.20;49.30;;;;;;4990888;28;75363;-71
2021/06/11 05:13:53;;;;;;;;;;;24.10;49.20;;;;;;4993004;28;74531;-72
2021/06/11 05:16:18;;;;;;;;;;;24.20;49.10;;;;;;4990779;28;77811;-65
2021/06/11 05:18:44;;;;;;;;;;;24.10;49.10;;;;;;4991416;28;77333;-67
2021/06/11 05:21:09;;;;;;;;;;;24.20;49.20;;;;;;4992726;28;75400;-68
2021/06/11 05:23:35;;;;;;;;;;;24.20;49.10;;;;;;4992372;28;74669;-69
2021/06/11 05:26:01;;;;;;;;;;;24.10;50.40;;;;;;4992441;28;75237;-67
2021/06/11 05:28:26;;;;;;;;;;;24.10;50.30;;;;;;4992311;28;74951;-69
2021/06/11 05:30:53;;;;;;;;;;;24.10;49.80;;;;;;4991998;28;75241;-72
2021/06/11 05:33:18;;;;;;;;;;;24.10;49.80;;;;;;4988550;28;75847;-71
2021/06/11 05:35:44;;;;;;;;;;;24.20;49.40;;;;;;4989712;28;75315;-76
2021/06/11 05:38:13;;;;;;;;;;;24.10;49.50;;;;;;4989144;28;75142;-70
2021/06/11 05:40:39;;;;;;;;;;;24.10;49.10;;;;;;4987684;28;75043;-70
2021/06/11 05:43:05;;;;;;;;;;;24.20;49.40;;;;;;4973871;28;75141;-70
2021/06/11 05:45:31;;;;;;;;;;;24.20;49.50;;;;;;4986215;28;75226;-70
2021/06/11 05:47:58;;;;;;;;;;;24.20;48.80;;;;;;4988043;28;75031;-70
2021/06/11 05:50:24;;;;;;;;;;;24.20;49.00;;;;;;4985499;28;75001;-71
2021/06/11 05:52:50;;;;;;;;;;;24.20;48.80;;;;;;4985542;28;76025;-70
2021/06/11 05:55:15;;;;;;;;;;;24.10;48.90;;;;;;4989758;28;75879;-70
2021/06/11 05:57:41;;;;;;;;;;;24.20;48.90;;;;;;4987240;28;75698;-70
2021/06/11 06:00:08;;;;;;;;;;;24.20;48.90;;;;;;4982051;28;76275;-70
2021/06/11 06:02:33;;;;;;;;;;;24.20;48.50;;;;;;4974991;28;74682;-71
2021/06/11 06:04:59;;;;;;;;;;;24.20;48.30;;;;;;4972534;28;76032;-71
2021/06/11 06:07:24;;;;;;;;;;;24.30;47.70;;;;;;4979223;28;76120;-71
2021/06/11 06:09:51;;;;;;;;;;;24.20;47.80;;;;;;4982127;28;75261;-69
2021/06/11 06:12:16;;;;;;;;;;;24.30;47.30;;;;;;4978251;28;74712;-73
2021/06/11 06:14:42;;;;;;;;;;;24.20;47.10;;;;;;4983617;28;75540;-74
2021/06/11 06:17:08;;;;;;;;;;;24.30;47.40;;;;;;4980411;28;76054;-77
2021/06/11 06:19:33;;;;;;;;;;;24.30;47.50;;;;;;4987151;28;75145;-72
2021/06/11 06:21:59;;;;;;;;;;;24.40;47.40;;;;;;4992210;28;75543;-72
2021/06/11 06:24:25;;;;;;;;;;;24.40;47.30;;;;;;4980936;28;77902;-72
2021/06/11 06:26:50;;;;;;;;;;;24.40;47.20;;;;;;4976176;28;75567;-72
2021/06/11 06:29:16;;;;;;;;;;;24.50;47.30;;;;;;4972462;28;75189;-72
2021/06/11 06:31:41;;;;;;;;;;;24.50;47.40;;;;;;4977208;28;75761;-70
2021/06/11 06:34:07;;;;;;;;;;;24.50;47.10;;;;;;4974463;28;75679;-70
2021/06/11 06:36:33;;;;;;;;;;;24.50;47.00;;;;;;4988174;28;75711;-72
2021/06/11 06:39:03;;;;;;;;;;;24.50;47.40;;;;;;4985295;28;75799;-71
2021/06/11 06:41:28;;;;;;;;;;;24.60;47.00;;;;;;4984968;28;74643;-71
2021/06/11 06:43:54;;;;;;;;;;;24.60;46.80;;;;;;4978825;28;75513;-70
2021/06/11 06:46:23;;;;;;;;;;;24.60;47.10;;;;;;4976347;28;75933;-70
2021/06/11 06:48:49;;;;;;;;;;;24.70;47.10;;;;;;4990740;28;75164;-71
2021/06/11 06:51:16;;;;;;;;;;;24.70;47.30;;;;;;4991387;28;74820;-72
2021/06/11 06:53:42;;;;;;;;;;;24.80;46.70;;;;;;4990064;28;77895;-71
2021/06/11 06:56:07;;;;;;;;;;;24.80;46.70;;;;;;4991959;28;74762;-70
2021/06/11 06:58:35;;;;;;;;;;;24.90;47.00;;;;;;4989624;28;76602;-71
2021/06/11 07:01:01;;;;;;;;;;;25.00;46.90;;;;;;4991548;28;75259;-69
2021/06/11 07:03:27;;;;;;;;;;;25.00;46.50;;;;;;4985431;28;75150;-70
2021/06/11 07:05:52;;;;;;;;;;;25.00;46.80;;;;;;4979625;28;75028;-70
2021/06/11 07:08:18;;;;;;;;;;;25.20;47.20;;;;;;4979912;28;77451;-70
2021/06/11 07:10:43;;;;;;;;;;;25.20;47.10;;;;;;4992165;28;74621;-68
2021/06/11 07:13:12;;;;;;;;;;;25.30;47.00;;;;;;4988000;28;75265;-68
2021/06/11 07:15:38;;;;;;;;;;;25.30;46.60;;;;;;4982064;28;76552;-69
2021/06/11 07:18:04;;;;;;;;;;;25.30;47.00;;;;;;4975017;28;75789;-73
2021/06/11 07:20:30;;;;;;;;;;;25.30;46.60;;;;;;4982098;28;75606;-68
2021/06/11 07:22:57;;;;;;;;;;;25.40;46.50;;;;;;4987689;28;75836;-72
2021/06/11 07:25:23;;;;;;;;;;;25.40;46.40;;;;;;4988480;28;76316;-74
2021/06/11 07:27:48;;;;;;;;;;;25.40;46.40;;;;;;4976307;28;77206;-69
2021/06/11 07:30:14;;;;;;;;;;;25.40;46.40;;;;;;4984506;28;75092;-74
2021/06/11 07:32:42;;;;;;;;;;;25.40;46.40;;;;;;4987128;28;77147;-72
2021/06/11 07:35:08;;;;;;;;;;;25.50;46.30;;;;;;4971809;28;75827;-72
2021/06/11 07:37:35;;;;;;;;;;;25.50;46.40;;;;;;4979882;28;75996;-71
2021/06/11 07:40:01;;;;;;;;;;;25.60;46.40;;;;;;4970239;28;77299;-69
2021/06/11 07:42:27;;;;;;;;;;;25.60;46.30;;;;;;4980744;28;75705;-68
2021/06/11 07:44:52;;;;;;;;;;;25.60;46.60;;;;;;4990386;28;75792;-69
2021/06/11 07:47:18;;;;;;;;;;;25.60;46.80;;;;;;4978750;28;76464;-67
2021/06/11 07:49:44;;;;;;;;;;;25.70;46.50;;;;;;4973547;28;75134;-71
2021/06/11 07:52:10;;;;;;;;;;;25.80;46.20;;;;;;4977485;28;78184;-70
2021/06/11 07:54:36;;;;;;;;;;;25.90;45.80;;;;;;4978733;28;76360;-73
2021/06/11 07:57:01;;;;;;;;;;;25.90;45.80;;;;;;4969787;28;74584;-70
2021/06/11 07:59:27;;;;;;;;;;;26.00;45.40;;;;;;4971142;28;77519;-71
2021/06/11 08:01:52;;;;;;;;;;;26.00;45.50;;;;;;4976023;28;76002;-75
2021/06/11 08:04:18;;;;;;;;;;;26.00;45.50;;;;;;4973296;28;77521;-73
2021/06/11 08:06:45;;;;;;;;;;;26.10;45.40;;;;;;4978400;28;75813;-71
2021/06/11 08:09:10;;;;;;;;;;;26.20;45.10;;;;;;4983481;28;75169;-69
2021/06/11 08:11:36;;;;;;;;;;;26.30;45.20;;;;;;4981681;28;75907;-69
2021/06/11 08:14:02;;;;;;;;;;;26.40;45.10;;;;;;4972296;28;75060;-68
2021/06/11 08:16:28;;;;;;;;;;;26.40;45.10;;;;;;4969891;28;77211;-69
2021/06/11 08:18:53;;;;;;;;;;;26.50;44.40;;;;;;4974582;28;75523;-69
2021/06/11 08:21:20;;;;;;;;;;;26.50;44.50;;;;;;4974101;28;76725;-69
2021/06/11 08:23:46;;;;;;;;;;;26.70;44.90;;;;;;4976526;28;75398;-70
2021/06/11 08:26:12;;;;;;;;;;;26.70;44.30;;;;;;4977728;28;76060;-69
2021/06/11 08:28:37;;;;;;;;;;;26.70;44.30;;;;;;4984746;28;75609;-68
2021/06/11 08:31:03;;;;;;;;;;;26.90;44.00;;;;;;4979440;28;75287;-69
2021/06/11 08:33:28;;;;;;;;;;;26.90;43.90;;;;;;4981126;28;75720;-69
2021/06/11 08:35:54;;;;;;;;;;;27.00;44.00;;;;;;4982242;28;75502;-67
2021/06/11 08:38:20;;;;;;;;;;;27.00;43.70;;;;;;4977965;28;76485;-68
2021/06/11 08:40:46;;;;;;;;;;;27.10;43.60;;;;;;4985051;28;75175;-68
2021/06/11 08:43:14;;;;;;;;;;;27.20;43.30;;;;;;4988535;28;75673;-67
2021/06/11 08:45:41;;;;;;;;;;;27.30;43.10;;;;;;5002645;28;75754;-67
2021/06/11 08:48:07;;;;;;;;;;;27.40;42.90;;;;;;4981407;28;76705;-67
2021/06/11 08:50:33;;;;;;;;;;;27.40;42.40;;;;;;4977106;28;75309;-67
2021/06/11 08:52:59;;;;;;;;;;;27.50;42.50;;;;;;4980395;28;75575;-67
2021/06/11 08:55:25;;;;;;;;;;;27.50;42.40;;;;;;4972599;28;76166;-67
2021/06/11 08:57:51;;;;;;;;;;;27.60;42.10;;;;;;4977932;28;75816;-67
2021/06/11 09:00:16;;;;;;;;;;;27.60;42.00;;;;;;4979853;28;76556;-68
2021/06/11 09:03:03;;;;;;;;;;;27.70;42.30;;;;;;4979890;28;75554;-68
2021/06/11 09:05:29;;;;;;;;;;;27.80;42.00;;;;;;4982007;28;74648;-69
2021/06/11 09:08:10;;;;;;;;;;;27.80;41.80;;;;;;4983123;28;75510;-68
2021/06/11 09:10:35;;;;;;;;;;;27.90;41.90;;;;;;4974244;28;76985;-68
2021/06/11 09:13:03;;;;;;;;;;;28.00;41.60;;;;;;4970300;28;75860;-70
2021/06/11 09:15:29;;;;;;;;;;;28.10;41.40;;;;;;4953404;28;77287;-69
2021/06/11 09:17:55;;;;;;;;;;;28.30;41.40;;;;;;4976780;28;75219;-72
2021/06/11 09:20:22;;;;;;;;;;;28.30;41.10;;;;;;4985917;28;76493;-64
2021/06/11 09:22:48;;;;;;;;;;;28.40;41.00;;;;;;4978297;28;77630;-64
2021/06/11 09:25:26;;;;;;;;;;;28.40;40.70;;;;;;4981212;28;76032;-64
2021/06/11 09:28:02;;;;;;;;;;;28.50;40.70;;;;;;4979135;28;75842;-67
2021/06/11 09:30:37;;;;;;;;;;;28.60;40.60;;;;;;4983447;28;75886;-65
2021/06/11 09:33:07;;;;;;;;;;;28.70;40.40;;;;;;4974242;28;74637;-65
2021/06/11 09:35:35;;;;;;;;;;;28.80;40.30;;;;;;4987603;28;75848;-65
2021/06/11 09:38:07;;;;;;;;;;;29.00;40.20;;;;;;4987226;28;75971;-67
2021/06/11 09:40:32;;;;;;;;;;;29.00;39.50;;;;;;4972546;28;77181;-66
2021/06/11 09:43:02;;;;;;;;;;;29.10;39.20;;;;;;4986430;28;76301;-67
2021/06/11 09:45:27;;;;;;;;;;;29.20;39.40;;;;;;4981215;28;77892;-67
2021/06/11 09:47:53;;;;;;;;;;;29.30;39.40;;;;;;4986195;28;75310;-67
2021/06/11 09:50:19;;;;;;;;;;;29.30;39.30;;;;;;4980696;28;77514;-66
2021/06/11 09:52:51;;;;;;;;;;;29.40;38.40;;;;;;4977738;28;75438;-66
2021/06/11 09:55:34;;;;;;;;;;;29.40;38.50;;;;;;4969994;28;75941;-67
2021/06/11 09:58:04;;;;;;;;;;;29.40;38.30;;;;;;4977344;28;75770;-68
2021/06/11 10:00:30;;;;;;;;;;;29.40;38.70;;;;;;4984916;28;76255;-65
2021/06/11 10:02:57;;;;;;;;;;;29.50;38.20;;;;;;4988645;28;75511;-67
2021/06/11 10:05:23;;;;;;;;;;;29.50;38.50;;;;;;4986588;28;75899;-66
2021/06/11 10:07:49;;;;;;;;;;;29.60;38.50;;;;;;4979851;28;75119;-67
2021/06/11 10:10:15;;;;;;;;;;;29.70;38.30;;;;;;4978920;28;77932;-66
2021/06/11 10:12:40;;;;;;;;;;;29.90;38.20;;;;;;4973978;28;77014;-66
2021/06/11 10:15:06;;;;;;;;;;;29.90;37.80;;;;;;4970820;28;78074;-66
2021/06/11 10:17:32;;;;;;;;;;;29.90;37.80;;;;;;4982497;28;75359;-64
2021/06/11 10:19:57;;;;;;;;;;;30.00;37.60;;;;;;4988659;28;75875;-64
2021/06/11 10:22:23;;;;;;;;;;;30.00;37.50;;;;;;4989277;28;75541;-64
2021/06/11 10:24:49;;;;;;;;;;;30.10;37.60;;;;;;4980778;28;76134;-64
2021/06/11 10:27:14;;;;;;;;;;;30.20;37.10;;;;;;4989131;28;75389;-64
2021/06/11 10:29:40;;;;;;;;;;;30.40;37.20;;;;;;4983873;28;75121;-65
2021/06/11 10:32:06;;;;;;;;;;;30.40;37.00;;;;;;4986551;28;76436;-65
2021/06/11 10:34:51;;;;;;;;;;;30.40;37.00;;;;;;4978165;28;76402;-65
2021/06/11 10:37:33;;;;;;;;;;;30.50;36.90;;;;;;4973122;28;76513;-65
2021/06/11 10:40:25;;;;;;;;;;;30.60;36.60;;;;;;4981071;28;75281;-65
2021/06/11 10:42:51;;;;;;;;;;;30.80;36.20;;;;;;4986795;28;77912;-65
2021/06/11 10:45:36;;;;;;;;;;;31.00;35.50;;;;;;4977002;28;76135;-65
2021/06/11 10:48:01;;;;;;;;;;;31.00;36.20;;;;;;4988258;28;77166;-65
2021/06/11 10:50:31;;;;;;;;;;;31.30;35.50;;;;;;4980123;28;77313;-65
2021/06/11 10:53:07;;;;;;;;;;;31.50;35.10;;;;;;4976015;28;77782;-66
2021/06/11 10:55:36;;;;;;;;;;;31.60;35.20;;;;;;4983612;28;75864;-65
2021/06/11 10:58:01;;;;;;;;;;;31.90;34.60;;;;;;4972440;28;76039;-66
2021/06/11 11:00:34;;;;;;;;;;;32.10;34.50;;;;;;4982523;28;75872;-65
2021/06/11 11:03:01;;;;;;;;;;;32.30;34.00;;;;;;4989659;28;76938;-62
2021/06/11 11:05:28;;;;;;;;;;;32.60;33.60;;;;;;4973695;28;76849;-65
2021/06/11 11:07:53;;;;;;;;;;;32.70;33.70;;;;;;4988850;28;75936;-64
2021/06/11 11:10:43;;;;;;;;;;;33.00;33.10;;;;;;4991765;28;76153;-64
2021/06/11 11:13:12;;;;;;;;;;;33.20;32.40;;;;;;4974427;28;75441;-65
2021/06/11 11:15:45;;;;;;;;;;;33.50;32.30;;;;;;4976681;28;75768;-64
2021/06/11 11:18:34;;;;;;;;;;;33.90;31.60;;;;;;4972403;28;75247;-66
2021/06/11 11:21:20;;;;;;;;;;;34.30;31.50;;;;;;4971119;28;77667;-64
2021/06/11 11:23:51;;;;;;;;;;;34.60;30.40;;;;;;4986551;28;77053;-66
2021/06/11 11:26:16;;;;;;;;;;;35.10;30.10;;;;;;4981319;28;75250;-65
2021/06/11 11:28:42;;;;;;;;;;;35.50;29.40;;;;;;4971882;28;76495;-66
2021/06/11 11:31:07;;;;;;;;;;;36.00;29.10;;;;;;4969797;28;75503;-66
2021/06/11 11:33:33;;;;;;;;;;;36.60;28.30;;;;;;4977911;28;76600;-67
2021/06/11 11:35:59;;;;;;;;;;;37.30;27.50;;;;;;4988666;28;77419;-66
2021/06/11 11:38:24;;;;;;;;;;;38.00;26.30;;;;;;4990993;28;75265;-67
2021/06/11 11:40:50;;;;;;;;;;;38.70;25.70;;;;;;4991261;28;75125;-66
2021/06/11 11:43:16;;;;;;;;;;;39.70;24.90;;;;;;4989148;28;76806;-66
2021/06/11 11:45:43;;;;;;;;;;;40.40;24.20;;;;;;4987084;28;76207;-66
2021/06/11 11:48:09;;;;;;;;;;;41.20;23.80;;;;;;4971317;28;75400;-66
2021/06/11 11:50:35;;;;;;;;;;;42.10;23.10;;;;;;4980578;28;76692;-66
2021/06/11 11:53:01;;;;;;;;;;;43.00;22.20;;;;;;4978269;28;77585;-67
2021/06/11 11:55:27;;;;;;;;;;;43.70;21.30;;;;;;4978174;28;76545;-68
2021/06/11 11:57:52;;;;;;;;;;;44.50;20.70;;;;;;4990333;28;75545;-67
2021/06/11 12:00:18;;;;;;;;;;;45.30;20.30;;;;;;4981519;28;77335;-66
2021/06/11 12:02:45;;;;;;;;;;;46.10;19.60;;;;;;4971334;28;75147;-67
2021/06/11 12:05:11;;;;;;;;;;;46.60;19.00;;;;;;4988087;28;75124;-66
2021/06/11 12:07:36;;;;;;;;;;;47.10;19.20;;;;;;4979945;28;75401;-68
2021/06/11 12:10:03;;;;;;;;;;;47.50;18.70;;;;;;4983785;28;77242;-69
2021/06/11 12:12:28;;;;;;;;;;;47.80;18.40;;;;;;4972088;28;76465;-69
2021/06/11 12:14:54;;;;;;;;;;;48.40;18.30;;;;;;4979843;28;77471;-70
2021/06/11 12:17:20;;;;;;;;;;;49.00;17.80;;;;;;4972029;28;76177;-69
2021/06/11 12:19:46;;;;;;;;;;;49.40;17.70;;;;;;4989632;28;75271;-71
2021/06/11 12:22:13;;;;;;;;;;;49.60;17.20;;;;;;4993008;28;75657;-74
2021/06/11 12:24:39;;;;;;;;;;;49.70;16.50;;;;;;4991460;28;77368;-67
2021/06/11 12:27:05;;;;;;;;;;;50.00;17.20;;;;;;4991808;28;76876;-65
2021/06/11 12:29:30;;;;;;;;;;;50.60;16.90;;;;;;4991040;28;76199;-68
2021/06/11 12:31:56;;;;;;;;;;;51.10;17.00;;;;;;4992643;28;75680;-75
2021/06/11 12:34:28;;;;;;;;;;;51.80;16.50;;;;;;4991538;28;75418;-82
2021/06/11 12:36:54;;;;;;;;;;;52.40;16.20;;;;;;4991598;28;75731;-70
2021/06/11 12:39:20;;;;;;;;;;;52.90;16.40;;;;;;4992819;28;75670;-71
2021/06/11 12:41:53;;;;;;;;;;;52.90;15.70;;;;;;4993040;28;75035;-69
2021/06/11 12:44:19;;;;;;;;;;;53.00;16.30;;;;;;4991562;28;78044;-70
2021/06/11 12:46:49;;;;;;;;;;;53.60;15.50;;;;;;4990510;28;75851;-69
2021/06/11 12:49:20;;;;;;;;;;;54.30;15.60;;;;;;4992909;28;75263;-70
2021/06/11 12:51:45;;;;;;;;;;;54.80;15.20;;;;;;4991077;28;77404;-74
2021/06/11 12:54:11;;;;;;;;;;;55.30;15.10;;;;;;4993262;28;74697;-70
2021/06/11 12:56:37;;;;;;;;;;;55.60;15.00;;;;;;4991192;28;76068;-71
2021/06/11 12:59:03;;;;;;;;;;;55.90;14.50;;;;;;4992535;28;75508;-72
2021/06/11 13:01:30;;;;;;;;;;;56.20;14.70;;;;;;4991007;28;74677;-74
2021/06/11 13:03:59;;;;;;;;;;;56.20;14.20;;;;;;4991293;28;75386;-71
2021/06/11 13:06:25;;;;;;;;;;;55.80;13.20;;;;;;4991421;28;75450;-72
2021/06/11 13:08:51;;;;;;;;;;;56.00;14.60;;;;;;4991341;28;76751;-71
2021/06/11 13:11:17;;;;;;;;;;;56.40;13.80;;;;;;4991378;28;74716;-71
2021/06/11 13:13:42;;;;;;;;;;;56.00;13.80;;;;;;4992663;28;75257;-70
2021/06/11 13:16:08;;;;;;;;;;;55.70;14.10;;;;;;4991214;28;75359;-70
2021/06/11 13:18:34;;;;;;;;;;;55.90;13.90;;;;;;4991212;28;77665;-70
2021/06/11 13:21:00;;;;;;;;;;;56.40;13.80;;;;;;4991101;28;75352;-69
2021/06/11 13:23:25;;;;;;;;;;;56.90;13.10;;;;;;4991049;28;77656;-71
2021/06/11 13:25:51;;;;;;;;;;;56.90;13.60;;;;;;4992249;28;74549;-70
2021/06/11 13:28:17;;;;;;;;;;;57.20;13.30;;;;;;4991099;28;77217;-69
2021/06/11 13:30:42;;;;;;;;;;;57.40;13.40;;;;;;4990402;28;74859;-69
2021/06/11 13:33:11;;;;;;;;;;;57.60;13.40;;;;;;4992404;28;74399;-75
2021/06/11 13:35:38;;;;;;;;;;;57.50;13.30;;;;;;4992573;28;74574;-72
2021/06/11 13:38:04;;;;;;;;;;;57.70;13.10;;;;;;4990829;28;77895;-70
2021/06/11 13:40:29;;;;;;;;;;;57.90;13.10;;;;;;4992507;28;75136;-73
2021/06/11 13:42:55;;;;;;;;;;;58.10;13.00;;;;;;4992128;28;74668;-70
2021/06/11 13:45:24;;;;;;;;;;;57.80;13.40;;;;;;4990810;28;75444;-74
2021/06/11 13:47:52;;;;;;;;;;;57.20;12.90;;;;;;4990983;28;74609;-71
2021/06/11 13:50:19;;;;;;;;;;;57.40;12.30;;;;;;4990272;28;76330;-73
2021/06/11 13:52:45;;;;;;;;;;;57.20;11.90;;;;;;4990651;28;75558;-74
2021/06/11 13:55:11;;;;;;;;;;;57.30;13.00;;;;;;4992166;28;74583;-71
2021/06/11 13:57:37;;;;;;;;;;;57.60;12.90;;;;;;4990287;28;76973;-72
2021/06/11 14:00:04;;;;;;;;;;;57.50;12.70;;;;;;4992434;28;76926;-72
2021/06/11 14:02:30;;;;;;;;;;;57.50;12.60;;;;;;4993829;28;75490;-72
2021/06/11 14:04:55;;;;;;;;;;;57.60;12.70;;;;;;4994127;28;75722;-70
2021/06/11 14:07:21;;;;;;;;;;;57.80;12.50;;;;;;4993957;28;74766;-76
2021/06/11 14:09:46;;;;;;;;;;;57.60;12.80;;;;;;4993748;28;74505;-70
2021/06/11 14:12:12;;;;;;;;;;;57.60;12.80;;;;;;4994885;28;74601;-70
2021/06/11 14:14:39;;;;;;;;;;;57.50;12.80;;;;;;4993727;28;75381;-69
2021/06/11 14:17:04;;;;;;;;;;;57.50;12.50;;;;;;4994916;28;75204;-71